Flight Number: AVA2179 Duration: 1:00
Departure: Glacier Park Intl  aka KGPI (KFCA) at 16:00 Distance: 357.551 Nm
Arrival: Vancouver Intl Airport (CYVR) at 17:00 Equipment: B737

Weather Information
404 Not Found

Not Found

The requested URL /data/observations/metar/decoded/KFCA.TXT was not found on this server.


Sunrise: 11:47 Sunset: 03:20 (UTC)

Vancouver International Air-Port, B. C., Canada (CYVR) 49-11N 123-10W 2M May 25, 2024 - 11:00 PM EDT / 2024.05.26 0300 UTC
Wind: from the SSW (200 degrees) at 12 MPH (10 KT) gusting to 21 MPH (18 KT):0
Visibility: 15 mile(s):0
Sky conditions: mostly cloudy Temperature: 55 F (13 C) Dew Point: 44 F (7 C) Relative Humidity: 66% Pressure (altimeter): 29.97 in. Hg (1014 hPa)
ob: CYVR 260300Z 20010G18KT 15SM FEW052 SCT070 BKN140 13/07 A2997 RMK SC2AC2AC3 SLP150 cycle: 3
Sunrise: 12:20 Sunset: 03:59 (UTC)

TAF:2024/05/26 03:42 TAF TAF CYVR 260240Z 2603/2706 19008KT P6SM BKN070 BKN120 TEMPO 2603/2609 SCT070 FM260900 18008KT P6SM -RA SCT008 OVC025 FM261100 18012KT 4SM -RA BR BKN008 OVC015 TEMPO 2611/2619 P6SM -RA SCT008 OVC015 BECMG 2612/2614 13012G22KT FM261900 13012KT 5SM -SHRA BR BKN020 RMK NXT FCST BY 260600Z

Previous Pireps for this route
Date Flightnr Aircraft Flight time Fuel used Landing rate On time
2017-07-25AVA2179B73701.2513015-351No
2017-08-28AVA2179B7371.0373560Yes
2017-12-17AVA2179B73701.268197-138No
(pireps marked green are flown by you)

Route map